sensor_id;sensor_type;location;lat;lon;timestamp;P1;durP1;ratioP1;P2;durP2;ratioP2
15281;SDS011;7742;44.320;19.820;2023-08-12T00:02:17;18.80;;;17.80;;
15281;SDS011;7742;44.320;19.820;2023-08-12T00:04:45;18.07;;;17.07;;
15281;SDS011;7742;44.320;19.820;2023-08-12T00:07:13;17.58;;;16.67;;
15281;SDS011;7742;44.320;19.820;2023-08-12T00:09:40;18.52;;;17.33;;
15281;SDS011;7742;44.320;19.820;2023-08-12T00:12:07;17.08;;;16.17;;
15281;SDS011;7742;44.320;19.820;2023-08-12T00:14:43;17.92;;;17.02;;
15281;SDS011;7742;44.320;19.820;2023-08-12T00:17:10;18.20;;;17.35;;
15281;SDS011;7742;44.320;19.820;2023-08-12T00:19:44;17.40;;;16.58;;
15281;SDS011;7742;44.320;19.820;2023-08-12T00:22:24;17.83;;;16.93;;
15281;SDS011;7742;44.320;19.820;2023-08-12T00:24:52;18.20;;;17.20;;
15281;SDS011;7742;44.320;19.820;2023-08-12T00:27:19;18.30;;;17.40;;
15281;SDS011;7742;44.320;19.820;2023-08-12T00:29:46;17.65;;;16.65;;
15281;SDS011;7742;44.320;19.820;2023-08-12T00:32:13;17.38;;;16.48;;
15281;SDS011;7742;44.320;19.820;2023-08-12T00:34:40;18.58;;;17.60;;
15281;SDS011;7742;44.320;19.820;2023-08-12T00:37:15;18.65;;;17.65;;
15281;SDS011;7742;44.320;19.820;2023-08-12T00:39:42;17.90;;;16.90;;
15281;SDS011;7742;44.320;19.820;2023-08-12T00:42:09;17.67;;;16.77;;
15281;SDS011;7742;44.320;19.820;2023-08-12T00:44:37;18.50;;;17.60;;
15281;SDS011;7742;44.320;19.820;2023-08-12T00:47:04;18.63;;;17.73;;
15281;SDS011;7742;44.320;19.820;2023-08-12T00:49:31;18.38;;;17.38;;
15281;SDS011;7742;44.320;19.820;2023-08-12T00:52:01;18.65;;;17.65;;
15281;SDS011;7742;44.320;19.820;2023-08-12T00:54:48;18.67;;;17.67;;
15281;SDS011;7742;44.320;19.820;2023-08-12T00:57:18;18.77;;;17.58;;
15281;SDS011;7742;44.320;19.820;2023-08-12T00:59:45;18.08;;;17.17;;
15281;SDS011;7742;44.320;19.820;2023-08-12T01:02:12;19.08;;;18.05;;
15281;SDS011;7742;44.320;19.820;2023-08-12T01:04:39;17.90;;;17.00;;
15281;SDS011;7742;44.320;19.820;2023-08-12T01:07:06;17.55;;;16.67;;
15281;SDS011;7742;44.320;19.820;2023-08-12T01:09:33;16.80;;;16.00;;
15281;SDS011;7742;44.320;19.820;2023-08-12T01:12:05;17.43;;;16.53;;
15281;SDS011;7742;44.320;19.820;2023-08-12T01:14:34;17.77;;;16.77;;
15281;SDS011;7742;44.320;19.820;2023-08-12T01:17:03;17.58;;;16.58;;
15281;SDS011;7742;44.320;19.820;2023-08-12T01:19:33;17.85;;;16.85;;
15281;SDS011;7742;44.320;19.820;2023-08-12T01:22:00;17.70;;;16.80;;
15281;SDS011;7742;44.320;19.820;2023-08-12T01:24:35;17.42;;;16.52;;
15281;SDS011;7742;44.320;19.820;2023-08-12T01:27:02;17.92;;;16.92;;
15281;SDS011;7742;44.320;19.820;2023-08-12T01:29:29;17.70;;;16.70;;
15281;SDS011;7742;44.320;19.820;2023-08-12T01:31:58;17.75;;;16.75;;
15281;SDS011;7742;44.320;19.820;2023-08-12T01:34:31;16.95;;;16.05;;
15281;SDS011;7742;44.320;19.820;2023-08-12T01:37:01;17.60;;;16.70;;
15281;SDS011;7742;44.320;19.820;2023-08-12T01:39:35;17.80;;;16.80;;
15281;SDS011;7742;44.320;19.820;2023-08-12T01:42:03;17.73;;;16.83;;
15281;SDS011;7742;44.320;19.820;2023-08-12T01:44:31;17.60;;;16.60;;
15281;SDS011;7742;44.320;19.820;2023-08-12T01:46:59;17.40;;;16.50;;
15281;SDS011;7742;44.320;19.820;2023-08-12T01:49:26;17.67;;;16.77;;
15281;SDS011;7742;44.320;19.820;2023-08-12T01:51:53;17.40;;;16.40;;
15281;SDS011;7742;44.320;19.820;2023-08-12T01:54:21;17.50;;;16.60;;
15281;SDS011;7742;44.320;19.820;2023-08-12T01:57:04;17.38;;;16.48;;
15281;SDS011;7742;44.320;19.820;2023-08-12T01:59:32;17.75;;;16.85;;
15281;SDS011;7742;44.320;19.820;2023-08-12T02:02:00;18.00;;;17.00;;
15281;SDS011;7742;44.320;19.820;2023-08-12T02:04:27;17.58;;;16.67;;
15281;SDS011;7742;44.320;19.820;2023-08-12T02:07:00;18.05;;;17.05;;
15281;SDS011;7742;44.320;19.820;2023-08-12T02:09:27;17.50;;;16.60;;
15281;SDS011;7742;44.320;19.820;2023-08-12T02:11:56;17.52;;;16.52;;
15281;SDS011;7742;44.320;19.820;2023-08-12T02:14:23;16.77;;;15.88;;
15281;SDS011;7742;44.320;19.820;2023-08-12T02:17:03;17.70;;;16.70;;
15281;SDS011;7742;44.320;19.820;2023-08-12T02:19:40;17.58;;;16.67;;
15281;SDS011;7742;44.320;19.820;2023-08-12T02:22:08;17.80;;;16.90;;
15281;SDS011;7742;44.320;19.820;2023-08-12T02:24:49;17.65;;;16.75;;
15281;SDS011;7742;44.320;19.820;2023-08-12T02:27:17;18.65;;;17.50;;
15281;SDS011;7742;44.320;19.820;2023-08-12T02:29:44;18.88;;;17.77;;
15281;SDS011;7742;44.320;19.820;2023-08-12T02:32:11;18.40;;;17.40;;
15281;SDS011;7742;44.320;19.820;2023-08-12T02:34:38;17.92;;;16.90;;
15281;SDS011;7742;44.320;19.820;2023-08-12T02:37:05;17.98;;;16.77;;
15281;SDS011;7742;44.320;19.820;2023-08-12T02:39:32;16.27;;;15.40;;
15281;SDS011;7742;44.320;19.820;2023-08-12T02:41:59;17.58;;;16.58;;
15281;SDS011;7742;44.320;19.820;2023-08-12T02:44:28;17.55;;;16.65;;
15281;SDS011;7742;44.320;19.820;2023-08-12T02:46:55;16.70;;;15.80;;
15281;SDS011;7742;44.320;19.820;2023-08-12T02:49:21;15.80;;;14.90;;
15281;SDS011;7742;44.320;19.820;2023-08-12T02:51:48;16.48;;;15.57;;
15281;SDS011;7742;44.320;19.820;2023-08-12T02:54:15;16.70;;;15.70;;
15281;SDS011;7742;44.320;19.820;2023-08-12T02:56:43;17.88;;;16.98;;
15281;SDS011;7742;44.320;19.820;2023-08-12T02:59:10;18.40;;;17.40;;
15281;SDS011;7742;44.320;19.820;2023-08-12T03:01:40;17.95;;;17.05;;
15281;SDS011;7742;44.320;19.820;2023-08-12T03:04:09;18.10;;;17.20;;
15281;SDS011;7742;44.320;19.820;2023-08-12T03:09:59;18.80;;;17.80;;
15281;SDS011;7742;44.320;19.820;2023-08-12T03:12:25;18.63;;;17.70;;
15281;SDS011;7742;44.320;19.820;2023-08-12T03:14:52;18.42;;;17.45;;
15281;SDS011;7742;44.320;19.820;2023-08-12T03:17:21;18.50;;;17.50;;
15281;SDS011;7742;44.320;19.820;2023-08-12T03:19:48;18.50;;;17.40;;
15281;SDS011;7742;44.320;19.820;2023-08-12T03:22:15;17.77;;;16.58;;
15281;SDS011;7742;44.320;19.820;2023-08-12T03:24:42;18.45;;;17.55;;
15281;SDS011;7742;44.320;19.820;2023-08-12T03:27:09;18.83;;;17.83;;
15281;SDS011;7742;44.320;19.820;2023-08-12T03:29:36;18.98;;;17.98;;
15281;SDS011;7742;44.320;19.820;2023-08-12T03:32:03;18.88;;;17.77;;
15281;SDS011;7742;44.320;19.820;2023-08-12T03:34:31;18.23;;;17.23;;
15281;SDS011;7742;44.320;19.820;2023-08-12T03:36:58;17.95;;;17.10;;
15281;SDS011;7742;44.320;19.820;2023-08-12T03:39:25;18.70;;;17.70;;
15281;SDS011;7742;44.320;19.820;2023-08-12T03:41:52;18.35;;;17.35;;
15281;SDS011;7742;44.320;19.820;2023-08-12T03:44:19;19.02;;;18.02;;
15281;SDS011;7742;44.320;19.820;2023-08-12T03:46:46;18.50;;;17.50;;
15281;SDS011;7742;44.320;19.820;2023-08-12T03:49:13;20.20;;;19.20;;
15281;SDS011;7742;44.320;19.820;2023-08-12T03:51:41;19.60;;;18.60;;
15281;SDS011;7742;44.320;19.820;2023-08-12T03:54:08;17.98;;;17.08;;
15281;SDS011;7742;44.320;19.820;2023-08-12T03:56:35;18.05;;;17.05;;
15281;SDS011;7742;44.320;19.820;2023-08-12T03:59:02;16.90;;;16.00;;
15281;SDS011;7742;44.320;19.820;2023-08-12T04:01:29;17.45;;;16.45;;
15281;SDS011;7742;44.320;19.820;2023-08-12T04:03:56;16.13;;;15.23;;
15281;SDS011;7742;44.320;19.820;2023-08-12T04:06:23;16.10;;;15.20;;
15281;SDS011;7742;44.320;19.820;2023-08-12T04:08:51;17.83;;;16.63;;
15281;SDS011;7742;44.320;19.820;2023-08-12T04:11:32;18.83;;;17.73;;
15281;SDS011;7742;44.320;19.820;2023-08-12T04:13:59;19.98;;;18.98;;
15281;SDS011;7742;44.320;19.820;2023-08-12T04:16:26;19.45;;;18.35;;
15281;SDS011;7742;44.320;19.820;2023-08-12T04:18:53;20.37;;;19.27;;
15281;SDS011;7742;44.320;19.820;2023-08-12T04:21:20;19.58;;;18.38;;
15281;SDS011;7742;44.320;19.820;2023-08-12T04:23:47;19.05;;;18.05;;
15281;SDS011;7742;44.320;19.820;2023-08-12T04:26:16;19.27;;;18.27;;
15281;SDS011;7742;44.320;19.820;2023-08-12T04:28:43;18.65;;;17.55;;
15281;SDS011;7742;44.320;19.820;2023-08-12T04:31:10;18.45;;;17.55;;
15281;SDS011;7742;44.320;19.820;2023-08-12T04:33:36;17.93;;;16.93;;
15281;SDS011;7742;44.320;19.820;2023-08-12T04:36:04;16.60;;;15.70;;
15281;SDS011;7742;44.320;19.820;2023-08-12T04:38:33;16.38;;;15.57;;
15281;SDS011;7742;44.320;19.820;2023-08-12T04:41:13;17.00;;;16.20;;
15281;SDS011;7742;44.320;19.820;2023-08-12T04:43:42;17.30;;;16.40;;
15281;SDS011;7742;44.320;19.820;2023-08-12T04:46:09;18.40;;;17.40;;
15281;SDS011;7742;44.320;19.820;2023-08-12T04:48:37;19.10;;;18.10;;
15281;SDS011;7742;44.320;19.820;2023-08-12T04:51:03;19.85;;;18.75;;
15281;SDS011;7742;44.320;19.820;2023-08-12T04:53:30;17.90;;;16.90;;
15281;SDS011;7742;44.320;19.820;2023-08-12T04:55:58;17.90;;;16.90;;
15281;SDS011;7742;44.320;19.820;2023-08-12T04:58:24;18.05;;;17.15;;
15281;SDS011;7742;44.320;19.820;2023-08-12T05:00:53;18.60;;;17.70;;
15281;SDS011;7742;44.320;19.820;2023-08-12T05:03:20;18.20;;;17.30;;
15281;SDS011;7742;44.320;19.820;2023-08-12T05:05:49;18.35;;;17.45;;
15281;SDS011;7742;44.320;19.820;2023-08-12T05:08:16;18.20;;;17.30;;
15281;SDS011;7742;44.320;19.820;2023-08-12T05:10:43;18.13;;;17.33;;
15281;SDS011;7742;44.320;19.820;2023-08-12T05:13:10;19.10;;;18.10;;
15281;SDS011;7742;44.320;19.820;2023-08-12T05:15:37;19.20;;;18.10;;
15281;SDS011;7742;44.320;19.820;2023-08-12T05:18:06;18.63;;;17.65;;
15281;SDS011;7742;44.320;19.820;2023-08-12T05:20:33;18.98;;;18.08;;
15281;SDS011;7742;44.320;19.820;2023-08-12T05:23:00;20.02;;;18.98;;
15281;SDS011;7742;44.320;19.820;2023-08-12T05:25:27;20.05;;;18.85;;
15281;SDS011;7742;44.320;19.820;2023-08-12T05:27:55;19.65;;;18.65;;
15281;SDS011;7742;44.320;19.820;2023-08-12T05:30:22;19.83;;;18.80;;
15281;SDS011;7742;44.320;19.820;2023-08-12T05:32:49;18.08;;;17.08;;
15281;SDS011;7742;44.320;19.820;2023-08-12T05:35:18;18.77;;;17.80;;
15281;SDS011;7742;44.320;19.820;2023-08-12T05:37:45;19.33;;;18.33;;
15281;SDS011;7742;44.320;19.820;2023-08-12T05:40:12;19.48;;;18.48;;
15281;SDS011;7742;44.320;19.820;2023-08-12T05:42:39;20.33;;;19.23;;
15281;SDS011;7742;44.320;19.820;2023-08-12T05:45:06;19.70;;;18.70;;
15281;SDS011;7742;44.320;19.820;2023-08-12T05:47:33;19.17;;;18.17;;
15281;SDS011;7742;44.320;19.820;2023-08-12T05:50:00;23.00;;;21.80;;
15281;SDS011;7742;44.320;19.820;2023-08-12T05:52:28;20.65;;;19.60;;
15281;SDS011;7742;44.320;19.820;2023-08-12T05:54:55;20.60;;;19.50;;
15281;SDS011;7742;44.320;19.820;2023-08-12T05:57:23;19.48;;;18.50;;
15281;SDS011;7742;44.320;19.820;2023-08-12T05:59:50;19.53;;;18.53;;
15281;SDS011;7742;44.320;19.820;2023-08-12T06:02:17;20.50;;;19.50;;
15281;SDS011;7742;44.320;19.820;2023-08-12T06:04:44;20.37;;;19.30;;
15281;SDS011;7742;44.320;19.820;2023-08-12T06:07:11;22.45;;;21.45;;
15281;SDS011;7742;44.320;19.820;2023-08-12T06:09:40;18.95;;;18.02;;
15281;SDS011;7742;44.320;19.820;2023-08-12T06:12:07;21.85;;;20.65;;
15281;SDS011;7742;44.320;19.820;2023-08-12T06:14:37;19.90;;;19.00;;
15281;SDS011;7742;44.320;19.820;2023-08-12T06:17:17;20.40;;;19.20;;
15281;SDS011;7742;44.320;19.820;2023-08-12T06:19:58;19.63;;;18.73;;
15281;SDS011;7742;44.320;19.820;2023-08-12T06:22:25;20.13;;;19.13;;
15281;SDS011;7742;44.320;19.820;2023-08-12T06:24:53;20.85;;;19.73;;
15281;SDS011;7742;44.320;19.820;2023-08-12T06:27:20;19.60;;;18.58;;
15281;SDS011;7742;44.320;19.820;2023-08-12T06:29:47;20.05;;;18.95;;
15281;SDS011;7742;44.320;19.820;2023-08-12T06:32:15;20.17;;;19.17;;
15281;SDS011;7742;44.320;19.820;2023-08-12T06:34:41;19.57;;;18.57;;
15281;SDS011;7742;44.320;19.820;2023-08-12T06:37:09;19.75;;;18.75;;
15281;SDS011;7742;44.320;19.820;2023-08-12T06:39:35;19.02;;;18.13;;
15281;SDS011;7742;44.320;19.820;2023-08-12T06:42:04;18.77;;;17.88;;
15281;SDS011;7742;44.320;19.820;2023-08-12T06:44:31;20.90;;;20.00;;
15281;SDS011;7742;44.320;19.820;2023-08-12T06:46:58;21.80;;;20.70;;
15281;SDS011;7742;44.320;19.820;2023-08-12T06:49:25;21.80;;;20.80;;
15281;SDS011;7742;44.320;19.820;2023-08-12T06:51:52;22.50;;;21.50;;
15281;SDS011;7742;44.320;19.820;2023-08-12T06:54:19;20.85;;;19.85;;
15281;SDS011;7742;44.320;19.820;2023-08-12T06:56:48;18.90;;;17.70;;
15281;SDS011;7742;44.320;19.820;2023-08-12T06:59:16;18.00;;;16.90;;
15281;SDS011;7742;44.320;19.820;2023-08-12T07:01:43;21.65;;;20.55;;
15281;SDS011;7742;44.320;19.820;2023-08-12T07:04:10;21.23;;;20.02;;
15281;SDS011;7742;44.320;19.820;2023-08-12T07:06:37;18.80;;;17.80;;
15281;SDS011;7742;44.320;19.820;2023-08-12T07:09:04;19.67;;;18.58;;
15281;SDS011;7742;44.320;19.820;2023-08-12T07:11:31;20.90;;;19.70;;
15281;SDS011;7742;44.320;19.820;2023-08-12T07:13:58;18.52;;;17.52;;
15281;SDS011;7742;44.320;19.820;2023-08-12T07:16:26;20.73;;;19.67;;
15281;SDS011;7742;44.320;19.820;2023-08-12T07:18:53;19.52;;;18.48;;
15281;SDS011;7742;44.320;19.820;2023-08-12T07:21:20;20.60;;;19.50;;
15281;SDS011;7742;44.320;19.820;2023-08-12T07:23:47;20.27;;;19.27;;
15281;SDS011;7742;44.320;19.820;2023-08-12T07:26:14;19.50;;;18.60;;
15281;SDS011;7742;44.320;19.820;2023-08-12T07:28:41;19.13;;;18.02;;
15281;SDS011;7742;44.320;19.820;2023-08-12T07:31:08;19.90;;;19.00;;
15281;SDS011;7742;44.320;19.820;2023-08-12T07:33:36;19.90;;;18.80;;
15281;SDS011;7742;44.320;19.820;2023-08-12T07:36:03;21.00;;;19.88;;
15281;SDS011;7742;44.320;19.820;2023-08-12T07:38:30;19.92;;;18.92;;
15281;SDS011;7742;44.320;19.820;2023-08-12T07:40:57;20.50;;;19.60;;
15281;SDS011;7742;44.320;19.820;2023-08-12T07:43:24;18.58;;;17.60;;
15281;SDS011;7742;44.320;19.820;2023-08-12T07:45:51;15.87;;;15.10;;
15281;SDS011;7742;44.320;19.820;2023-08-12T07:48:18;16.60;;;15.80;;
15281;SDS011;7742;44.320;19.820;2023-08-12T07:50:47;16.33;;;15.52;;
15281;SDS011;7742;44.320;19.820;2023-08-12T07:53:14;16.08;;;15.38;;
15281;SDS011;7742;44.320;19.820;2023-08-12T07:55:41;19.23;;;18.38;;
15281;SDS011;7742;44.320;19.820;2023-08-12T07:58:08;19.33;;;18.40;;
15281;SDS011;7742;44.320;19.820;2023-08-12T08:00:35;19.55;;;18.60;;
15281;SDS011;7742;44.320;19.820;2023-08-12T08:03:02;19.38;;;18.38;;
15281;SDS011;7742;44.320;19.820;2023-08-12T08:05:29;18.98;;;18.08;;
15281;SDS011;7742;44.320;19.820;2023-08-12T08:07:57;19.35;;;18.25;;
15281;SDS011;7742;44.320;19.820;2023-08-12T08:10:24;18.13;;;17.13;;
15281;SDS011;7742;44.320;19.820;2023-08-12T08:12:51;16.98;;;16.13;;
15281;SDS011;7742;44.320;19.820;2023-08-12T08:15:18;18.02;;;17.13;;
15281;SDS011;7742;44.320;19.820;2023-08-12T08:17:45;18.40;;;17.50;;
15281;SDS011;7742;44.320;19.820;2023-08-12T08:20:12;17.50;;;16.60;;
15281;SDS011;7742;44.320;19.820;2023-08-12T08:22:39;17.10;;;16.20;;
15281;SDS011;7742;44.320;19.820;2023-08-12T08:25:07;19.73;;;18.73;;
15281;SDS011;7742;44.320;19.820;2023-08-12T08:27:34;20.20;;;19.20;;
15281;SDS011;7742;44.320;19.820;2023-08-12T08:30:01;20.50;;;19.42;;
15281;SDS011;7742;44.320;19.820;2023-08-12T08:32:29;19.83;;;18.80;;
15281;SDS011;7742;44.320;19.820;2023-08-12T08:34:55;19.25;;;18.27;;
15281;SDS011;7742;44.320;19.820;2023-08-12T08:37:22;20.05;;;19.05;;
15281;SDS011;7742;44.320;19.820;2023-08-12T08:39:49;19.85;;;18.88;;
15281;SDS011;7742;44.320;19.820;2023-08-12T08:42:18;18.50;;;17.60;;
15281;SDS011;7742;44.320;19.820;2023-08-12T08:44:47;20.13;;;19.15;;
15281;SDS011;7742;44.320;19.820;2023-08-12T08:47:15;19.55;;;18.45;;
15281;SDS011;7742;44.320;19.820;2023-08-12T08:49:43;18.88;;;17.85;;
15281;SDS011;7742;44.320;19.820;2023-08-12T08:52:10;18.63;;;17.60;;
15281;SDS011;7742;44.320;19.820;2023-08-12T08:54:37;20.13;;;19.13;;
15281;SDS011;7742;44.320;19.820;2023-08-12T08:57:05;18.80;;;17.90;;
15281;SDS011;7742;44.320;19.820;2023-08-12T08:59:34;18.65;;;17.65;;
15281;SDS011;7742;44.320;19.820;2023-08-12T09:02:01;19.92;;;18.85;;
15281;SDS011;7742;44.320;19.820;2023-08-12T09:04:28;19.35;;;18.20;;
15281;SDS011;7742;44.320;19.820;2023-08-12T09:06:55;17.40;;;16.60;;
15281;SDS011;7742;44.320;19.820;2023-08-12T09:09:24;19.83;;;18.83;;
15281;SDS011;7742;44.320;19.820;2023-08-12T09:11:51;19.42;;;18.42;;
15281;SDS011;7742;44.320;19.820;2023-08-12T09:14:19;19.65;;;18.65;;
15281;SDS011;7742;44.320;19.820;2023-08-12T09:16:47;18.70;;;17.70;;
15281;SDS011;7742;44.320;19.820;2023-08-12T09:19:14;18.15;;;17.25;;
15281;SDS011;7742;44.320;19.820;2023-08-12T09:21:41;18.75;;;17.75;;
15281;SDS011;7742;44.320;19.820;2023-08-12T09:24:08;19.17;;;18.17;;
15281;SDS011;7742;44.320;19.820;2023-08-12T09:26:35;19.35;;;18.42;;
15281;SDS011;7742;44.320;19.820;2023-08-12T09:29:02;18.98;;;18.08;;
15281;SDS011;7742;44.320;19.820;2023-08-12T09:31:30;18.38;;;17.38;;
15281;SDS011;7742;44.320;19.820;2023-08-12T09:33:59;17.85;;;16.95;;
15281;SDS011;7742;44.320;19.820;2023-08-12T09:36:29;17.05;;;16.15;;
15281;SDS011;7742;44.320;19.820;2023-08-12T09:38:57;16.13;;;15.23;;
15281;SDS011;7742;44.320;19.820;2023-08-12T09:41:24;16.42;;;15.45;;
15281;SDS011;7742;44.320;19.820;2023-08-12T09:43:51;16.40;;;15.50;;
15281;SDS011;7742;44.320;19.820;2023-08-12T09:46:21;17.25;;;16.15;;
15281;SDS011;7742;44.320;19.820;2023-08-12T09:48:49;18.40;;;17.38;;
15281;SDS011;7742;44.320;19.820;2023-08-12T09:51:17;18.47;;;17.57;;
15281;SDS011;7742;44.320;19.820;2023-08-12T09:53:47;18.00;;;17.10;;
15281;SDS011;7742;44.320;19.820;2023-08-12T09:56:14;17.60;;;16.63;;
15281;SDS011;7742;44.320;19.820;2023-08-12T09:58:43;17.73;;;16.73;;
15281;SDS011;7742;44.320;19.820;2023-08-12T10:01:14;16.60;;;15.70;;
15281;SDS011;7742;44.320;19.820;2023-08-12T10:03:43;16.77;;;15.77;;
15281;SDS011;7742;44.320;19.820;2023-08-12T10:06:12;17.05;;;16.10;;
15281;SDS011;7742;44.320;19.820;2023-08-12T10:08:41;17.40;;;16.40;;
15281;SDS011;7742;44.320;19.820;2023-08-12T10:11:08;15.93;;;15.00;;
15281;SDS011;7742;44.320;19.820;2023-08-12T10:13:35;16.42;;;15.43;;
15281;SDS011;7742;44.320;19.820;2023-08-12T10:16:03;15.93;;;15.02;;
15281;SDS011;7742;44.320;19.820;2023-08-12T10:18:30;16.90;;;16.00;;
15281;SDS011;7742;44.320;19.820;2023-08-12T10:20:57;15.23;;;14.40;;
15281;SDS011;7742;44.320;19.820;2023-08-12T10:23:24;15.50;;;14.70;;
15281;SDS011;7742;44.320;19.820;2023-08-12T10:25:54;15.63;;;14.82;;
15281;SDS011;7742;44.320;19.820;2023-08-12T10:28:21;16.10;;;15.20;;
15281;SDS011;7742;44.320;19.820;2023-08-12T10:30:48;17.67;;;16.77;;
15281;SDS011;7742;44.320;19.820;2023-08-12T10:33:15;17.25;;;16.35;;
15281;SDS011;7742;44.320;19.820;2023-08-12T10:35:44;17.27;;;16.38;;
15281;SDS011;7742;44.320;19.820;2023-08-12T10:38:12;17.70;;;16.70;;
15281;SDS011;7742;44.320;19.820;2023-08-12T10:40:39;17.80;;;16.80;;
15281;SDS011;7742;44.320;19.820;2023-08-12T10:43:08;17.40;;;16.40;;
15281;SDS011;7742;44.320;19.820;2023-08-12T10:45:42;17.30;;;16.40;;
15281;SDS011;7742;44.320;19.820;2023-08-12T10:48:09;18.05;;;17.10;;
15281;SDS011;7742;44.320;19.820;2023-08-12T10:50:43;17.98;;;16.90;;
15281;SDS011;7742;44.320;19.820;2023-08-12T10:53:20;18.92;;;17.85;;
15281;SDS011;7742;44.320;19.820;2023-08-12T10:55:48;19.20;;;18.20;;
15281;SDS011;7742;44.320;19.820;2023-08-12T10:58:25;17.75;;;16.80;;
15281;SDS011;7742;44.320;19.820;2023-08-12T11:00:53;18.70;;;17.80;;
15281;SDS011;7742;44.320;19.820;2023-08-12T11:03:20;18.42;;;17.42;;
15281;SDS011;7742;44.320;19.820;2023-08-12T11:05:47;19.83;;;18.73;;
15281;SDS011;7742;44.320;19.820;2023-08-12T11:08:15;17.92;;;16.83;;
15281;SDS011;7742;44.320;19.820;2023-08-12T11:10:43;16.73;;;15.80;;
15281;SDS011;7742;44.320;19.820;2023-08-12T11:13:10;17.55;;;16.52;;
15281;SDS011;7742;44.320;19.820;2023-08-12T11:15:40;17.88;;;16.98;;
15281;SDS011;7742;44.320;19.820;2023-08-12T11:18:08;16.88;;;16.17;;
15281;SDS011;7742;44.320;19.820;2023-08-12T11:20:35;16.02;;;15.23;;
15281;SDS011;7742;44.320;19.820;2023-08-12T11:23:03;17.50;;;16.70;;
15281;SDS011;7742;44.320;19.820;2023-08-12T11:25:30;17.10;;;16.20;;
15281;SDS011;7742;44.320;19.820;2023-08-12T11:27:58;16.48;;;15.68;;
15281;SDS011;7742;44.320;19.820;2023-08-12T11:30:25;16.08;;;15.38;;
15281;SDS011;7742;44.320;19.820;2023-08-12T11:32:54;18.83;;;17.92;;
15281;SDS011;7742;44.320;19.820;2023-08-12T11:35:22;22.42;;;21.33;;
15281;SDS011;7742;44.320;19.820;2023-08-12T11:37:50;19.48;;;18.48;;
15281;SDS011;7742;44.320;19.820;2023-08-12T11:40:18;19.45;;;18.55;;
15281;SDS011;7742;44.320;19.820;2023-08-12T11:42:45;18.40;;;17.40;;
15281;SDS011;7742;44.320;19.820;2023-08-12T11:45:13;18.55;;;17.55;;
15281;SDS011;7742;44.320;19.820;2023-08-12T11:47:40;19.10;;;18.10;;
15281;SDS011;7742;44.320;19.820;2023-08-12T11:50:10;18.77;;;17.88;;
15281;SDS011;7742;44.320;19.820;2023-08-12T11:52:38;17.50;;;16.60;;
15281;SDS011;7742;44.320;19.820;2023-08-12T11:55:06;16.80;;;15.90;;
15281;SDS011;7742;44.320;19.820;2023-08-12T11:57:33;17.10;;;16.30;;
15281;SDS011;7742;44.320;19.820;2023-08-12T12:00:01;17.88;;;16.83;;
15281;SDS011;7742;44.320;19.820;2023-08-12T12:02:30;18.77;;;17.88;;
15281;SDS011;7742;44.320;19.820;2023-08-12T12:04:57;20.77;;;19.77;;
15281;SDS011;7742;44.320;19.820;2023-08-12T12:07:25;18.25;;;17.25;;
15281;SDS011;7742;44.320;19.820;2023-08-12T12:09:52;19.35;;;18.35;;
15281;SDS011;7742;44.320;19.820;2023-08-12T12:12:21;18.83;;;17.83;;
15281;SDS011;7742;44.320;19.820;2023-08-12T12:14:50;19.40;;;18.40;;
15281;SDS011;7742;44.320;19.820;2023-08-12T12:17:18;18.65;;;17.70;;
15281;SDS011;7742;44.320;19.820;2023-08-12T12:19:47;19.30;;;18.40;;
15281;SDS011;7742;44.320;19.820;2023-08-12T12:22:14;19.55;;;18.65;;
15281;SDS011;7742;44.320;19.820;2023-08-12T12:24:45;19.77;;;18.80;;
15281;SDS011;7742;44.320;19.820;2023-08-12T12:27:12;18.10;;;17.10;;
15281;SDS011;7742;44.320;19.820;2023-08-12T12:29:39;18.98;;;17.95;;
15281;SDS011;7742;44.320;19.820;2023-08-12T12:32:06;17.63;;;16.73;;
15281;SDS011;7742;44.320;19.820;2023-08-12T12:34:34;16.80;;;15.80;;
15281;SDS011;7742;44.320;19.820;2023-08-12T12:37:01;19.23;;;18.23;;
15281;SDS011;7742;44.320;19.820;2023-08-12T12:39:28;18.23;;;17.08;;
15281;SDS011;7742;44.320;19.820;2023-08-12T12:41:56;19.90;;;18.90;;
15281;SDS011;7742;44.320;19.820;2023-08-12T12:44:25;19.40;;;18.40;;
15281;SDS011;7742;44.320;19.820;2023-08-12T12:46:52;25.45;;;24.02;;
15281;SDS011;7742;44.320;19.820;2023-08-12T12:49:19;24.65;;;23.05;;
15281;SDS011;7742;44.320;19.820;2023-08-12T12:51:46;16.95;;;16.05;;
15281;SDS011;7742;44.320;19.820;2023-08-12T12:54:13;22.27;;;20.45;;
15281;SDS011;7742;44.320;19.820;2023-08-12T12:56:40;17.90;;;16.92;;
15281;SDS011;7742;44.320;19.820;2023-08-12T12:59:09;24.40;;;23.20;;
15281;SDS011;7742;44.320;19.820;2023-08-12T13:01:36;18.80;;;17.80;;
15281;SDS011;7742;44.320;19.820;2023-08-12T13:04:03;18.17;;;17.13;;
15281;SDS011;7742;44.320;19.820;2023-08-12T13:06:30;18.13;;;17.23;;
15281;SDS011;7742;44.320;19.820;2023-08-12T13:08:57;17.90;;;17.05;;
15281;SDS011;7742;44.320;19.820;2023-08-12T13:11:24;17.52;;;16.73;;
15281;SDS011;7742;44.320;19.820;2023-08-12T13:13:52;17.48;;;16.67;;
15281;SDS011;7742;44.320;19.820;2023-08-12T13:16:21;17.52;;;16.52;;
15281;SDS011;7742;44.320;19.820;2023-08-12T13:18:48;18.30;;;17.33;;
15281;SDS011;7742;44.320;19.820;2023-08-12T13:21:14;18.50;;;17.50;;
15281;SDS011;7742;44.320;19.820;2023-08-12T13:23:41;17.60;;;16.73;;
15281;SDS011;7742;44.320;19.820;2023-08-12T13:26:08;18.20;;;17.20;;
15281;SDS011;7742;44.320;19.820;2023-08-12T13:28:35;18.05;;;17.20;;
15281;SDS011;7742;44.320;19.820;2023-08-12T13:31:02;18.63;;;17.73;;
15281;SDS011;7742;44.320;19.820;2023-08-12T13:33:31;18.92;;;18.00;;
15281;SDS011;7742;44.320;19.820;2023-08-12T13:35:58;17.40;;;16.60;;
15281;SDS011;7742;44.320;19.820;2023-08-12T13:38:24;17.27;;;16.40;;
15281;SDS011;7742;44.320;19.820;2023-08-12T13:40:51;17.30;;;16.40;;
15281;SDS011;7742;44.320;19.820;2023-08-12T13:43:18;18.13;;;17.23;;
15281;SDS011;7742;44.320;19.820;2023-08-12T13:45:45;16.73;;;15.93;;
15281;SDS011;7742;44.320;19.820;2023-08-12T13:48:12;17.50;;;16.50;;
15281;SDS011;7742;44.320;19.820;2023-08-12T13:50:41;17.10;;;16.30;;
15281;SDS011;7742;44.320;19.820;2023-08-12T13:53:08;16.85;;;16.05;;
15281;SDS011;7742;44.320;19.820;2023-08-12T13:55:36;18.75;;;17.77;;
15281;SDS011;7742;44.320;19.820;2023-08-12T13:58:03;18.40;;;17.50;;
15281;SDS011;7742;44.320;19.820;2023-08-12T14:00:30;16.23;;;15.53;;
15281;SDS011;7742;44.320;19.820;2023-08-12T14:02:58;16.30;;;15.60;;
15281;SDS011;7742;44.320;19.820;2023-08-12T14:05:25;18.27;;;17.45;;
15281;SDS011;7742;44.320;19.820;2023-08-12T14:07:53;18.83;;;17.92;;
15281;SDS011;7742;44.320;19.820;2023-08-12T14:10:20;18.50;;;17.60;;
15281;SDS011;7742;44.320;19.820;2023-08-12T14:12:47;18.07;;;17.20;;
15281;SDS011;7742;44.320;19.820;2023-08-12T14:15:14;18.05;;;17.25;;
15281;SDS011;7742;44.320;19.820;2023-08-12T14:17:41;18.30;;;17.50;;
15281;SDS011;7742;44.320;19.820;2023-08-12T14:20:08;20.25;;;19.15;;
15281;SDS011;7742;44.320;19.820;2023-08-12T14:22:35;19.30;;;18.40;;
15281;SDS011;7742;44.320;19.820;2023-08-12T14:25:04;19.00;;;18.20;;
15281;SDS011;7742;44.320;19.820;2023-08-12T14:27:32;18.15;;;17.33;;
15281;SDS011;7742;44.320;19.820;2023-08-12T14:29:59;17.70;;;16.80;;